createdAt,value
2022-08-11T00:01:18.220Z,90
2022-08-11T00:06:53.214Z,90
2022-08-11T00:12:28.239Z,90
2022-08-11T00:18:03.185Z,89
2022-08-11T00:23:38.310Z,89
2022-08-11T00:29:13.258Z,89
2022-08-11T00:35:57.618Z,88
2022-08-11T00:41:29.847Z,87
2022-08-11T00:48:11.947Z,86
2022-08-11T00:53:46.948Z,86
2022-08-11T00:59:34.197Z,85
2022-08-11T01:04:56.955Z,85
2022-08-11T01:10:31.968Z,85
2022-08-11T01:16:07.017Z,84
2022-08-11T01:21:41.960Z,84
2022-08-11T01:27:19.619Z,83
2022-08-11T01:32:51.962Z,83
2022-08-11T01:38:27.007Z,83
2022-08-11T01:44:01.977Z,83
2022-08-11T01:50:09.822Z,83
2022-08-11T01:55:12.115Z,83
2022-08-11T02:00:47.268Z,83
2022-08-11T02:06:24.135Z,83
2022-08-11T02:11:57.176Z,83
2022-08-11T02:17:32.159Z,83
2022-08-11T02:23:07.089Z,84
2022-08-11T02:28:46.833Z,84
2022-08-11T02:34:17.257Z,84
2022-08-11T02:39:52.800Z,84
2022-08-11T02:45:27.588Z,84
2022-08-11T02:51:02.127Z,84
2022-08-11T02:56:37.111Z,84
2022-08-11T03:02:12.105Z,84
2022-08-11T03:07:47.092Z,84
2022-08-11T03:13:22.101Z,84
2022-08-11T03:18:57.136Z,84
2022-08-11T03:24:32.148Z,84
2022-08-11T03:31:13.748Z,83
2022-08-11T03:37:15.388Z,83
2022-08-11T03:42:23.750Z,83
2022-08-11T03:47:58.728Z,83
2022-08-11T03:53:33.739Z,83
2022-08-11T03:59:08.827Z,82
2022-08-11T04:04:45.160Z,82
2022-08-11T04:10:18.910Z,82
2022-08-11T04:15:53.809Z,82
2022-08-11T04:21:28.827Z,82
2022-08-11T04:27:05.017Z,82
2022-08-11T04:32:39.095Z,82
2022-08-11T04:38:13.795Z,82
2022-08-11T04:44:02.254Z,82
2022-08-11T04:49:24.231Z,82
2022-08-11T04:54:59.001Z,82
2022-08-11T05:00:38.117Z,82
2022-08-11T05:06:08.876Z,82
2022-08-11T05:11:43.874Z,83
2022-08-11T05:17:19.063Z,83
2022-08-11T05:22:55.178Z,83
2022-08-11T05:28:28.957Z,83
2022-08-11T05:35:11.088Z,83
2022-08-11T05:40:51.151Z,83
2022-08-11T05:46:21.014Z,83
2022-08-11T05:51:57.207Z,83
2022-08-11T05:57:44.014Z,83
2022-08-11T06:03:06.050Z,83
2022-08-11T06:08:41.065Z,83
2022-08-11T06:14:16.068Z,83
2022-08-11T06:19:51.167Z,83
2022-08-11T06:25:25.712Z,83
2022-08-11T06:31:00.588Z,83
2022-08-11T06:36:35.541Z,83
2022-08-11T06:42:11.152Z,83
2022-08-11T06:47:45.571Z,83
2022-08-11T06:53:20.567Z,83
2022-08-11T06:58:55.620Z,83
2022-08-11T07:04:31.176Z,82
2022-08-11T07:10:05.591Z,82
2022-08-11T07:16:12.485Z,82
2022-08-11T07:22:00.101Z,82
2022-08-11T07:26:50.694Z,82
2022-08-11T07:32:25.682Z,82
2022-08-11T07:39:07.802Z,82
2022-08-11T07:46:57.011Z,81
2022-08-11T07:52:32.833Z,82
2022-08-11T07:58:19.163Z,82
2022-08-11T08:03:53.971Z,82
2022-08-11T08:09:17.024Z,82
2022-08-11T08:14:52.009Z,82
2022-08-11T08:20:27.599Z,81
2022-08-11T08:26:01.507Z,80
2022-08-11T08:31:36.504Z,80
2022-08-11T08:37:16.215Z,80
2022-08-11T08:42:46.679Z,77
2022-08-11T08:49:28.625Z,75
2022-08-11T08:55:03.643Z,75
2022-08-11T09:01:45.856Z,76
2022-08-11T09:07:21.429Z,76
2022-08-11T09:12:55.791Z,76
2022-08-11T09:18:33.747Z,76
2022-08-11T09:24:06.652Z,76
2022-08-11T09:29:40.838Z,77
2022-08-11T09:35:15.862Z,77
2022-08-11T09:40:52.777Z,77
2022-08-11T09:46:25.829Z,77
2022-08-11T09:53:38.158Z,77
2022-08-11T09:58:43.579Z,77
2022-08-11T10:04:17.967Z,77
2022-08-11T10:09:52.973Z,77
2022-08-11T10:15:27.906Z,77
2022-08-11T10:21:02.429Z,77
2022-08-11T10:26:37.561Z,77
2022-08-11T10:32:12.480Z,77
2022-08-11T10:38:08.720Z,77
2022-08-11T10:44:01.520Z,78
2022-08-11T10:48:57.476Z,78
2022-08-11T10:54:32.541Z,78
2022-08-11T11:00:07.631Z,78
2022-08-11T11:06:27.681Z,78
2022-08-11T11:11:18.440Z,78
2022-08-11T11:16:52.599Z,78
2022-08-11T11:22:28.574Z,78
2022-08-11T11:28:02.573Z,78
2022-08-11T11:34:06.239Z,78
2022-08-11T11:39:12.653Z,78
2022-08-11T11:44:47.626Z,78
2022-08-11T11:50:22.607Z,78
2022-08-11T11:55:59.126Z,78
2022-08-11T12:01:32.550Z,78
2022-08-11T12:07:07.718Z,78
2022-08-11T12:12:42.652Z,78
2022-08-11T12:18:18.302Z,78
2022-08-11T12:23:52.584Z,78
2022-08-11T12:29:27.699Z,78
2022-08-11T12:35:02.661Z,78
2022-08-11T12:41:11.907Z,78
2022-08-11T12:46:13.586Z,78
2022-08-11T12:52:10.919Z,78
2022-08-11T12:58:29.779Z,78
2022-08-11T13:04:04.795Z,78
2022-08-11T13:09:39.746Z,78
2022-08-11T13:15:14.857Z,78
2022-08-11T13:20:49.835Z,78
2022-08-11T13:26:45.027Z,79
2022-08-11T13:32:00.051Z,79
2022-08-11T13:38:17.627Z,79
2022-08-11T13:43:14.731Z,79
2022-08-11T13:48:44.447Z,80
2022-08-11T13:54:19.441Z,80
2022-08-11T13:59:54.510Z,80
2022-08-11T14:05:29.516Z,81
2022-08-11T14:11:04.353Z,81
2022-08-11T14:16:39.498Z,81
2022-08-11T14:22:14.388Z,82
2022-08-11T14:28:30.020Z,82
2022-08-11T14:33:24.414Z,82
2022-08-11T14:38:59.388Z,82
2022-08-11T14:44:34.591Z,82
2022-08-11T14:50:10.762Z,82
2022-08-11T14:55:44.482Z,82
2022-08-11T15:01:19.534Z,83
2022-08-11T15:06:54.427Z,83
2022-08-11T15:12:33.548Z,82
2022-08-11T15:18:04.972Z,82
2022-08-11T15:23:39.626Z,83
2022-08-11T15:29:14.938Z,83
2022-08-11T15:34:49.580Z,83
2022-08-11T15:40:31.727Z,83
2022-08-11T15:45:59.556Z,83
2022-08-11T15:51:34.552Z,83
2022-08-11T15:57:09.448Z,83
2022-08-11T16:02:44.618Z,83
2022-08-11T16:08:31.664Z,83
2022-08-11T16:15:03.910Z,83
2022-08-11T16:20:36.700Z,83
2022-08-11T16:27:08.580Z,84
2022-08-11T16:31:46.746Z,84
2022-08-11T16:37:21.643Z,84
2022-08-11T16:43:00.041Z,84
2022-08-11T16:48:36.593Z,84
2022-08-11T16:54:06.712Z,84
2022-08-11T16:59:41.732Z,85
2022-08-11T17:05:16.755Z,86
2022-08-11T17:10:55.392Z,87
2022-08-11T17:16:26.947Z,88
2022-08-11T17:23:08.307Z,89
2022-08-11T17:28:43.289Z,90
2022-08-11T17:34:18.903Z,91
2022-08-11T17:39:53.621Z,92
2022-08-11T17:45:28.312Z,92
2022-08-11T17:51:03.330Z,96
2022-08-11T17:56:38.712Z,97
2022-08-11T18:02:13.482Z,97
2022-08-11T18:07:48.446Z,97
2022-08-11T18:13:23.554Z,97
2022-08-11T18:18:58.500Z,98
2022-08-11T18:24:33.544Z,98
2022-08-11T18:30:08.541Z,98
2022-08-11T18:35:43.448Z,98
2022-08-11T18:41:18.473Z,98
2022-08-11T18:46:53.371Z,98
2022-08-11T18:52:28.553Z,98
2022-08-11T18:58:03.385Z,98
2022-08-11T19:03:43.454Z,98
2022-08-11T19:09:13.398Z,98
2022-08-11T19:14:48.411Z,98
2022-08-11T19:20:23.520Z,98
2022-08-11T19:25:58.583Z,98
2022-08-11T19:31:33.614Z,98
2022-08-11T19:37:08.636Z,98
2022-08-11T19:42:43.522Z,98
2022-08-11T19:48:31.686Z,98
2022-08-11T19:53:53.460Z,98
2022-08-11T19:59:28.524Z,98
2022-08-11T20:05:03.558Z,98
2022-08-11T20:10:38.621Z,98
2022-08-11T20:16:13.563Z,98
2022-08-11T20:21:48.572Z,98
2022-08-11T20:27:24.888Z,98
2022-08-11T20:32:58.561Z,98
2022-08-11T20:38:33.687Z,98
2022-08-11T20:44:09.803Z,98
2022-08-11T20:49:48.755Z,98
2022-08-11T20:55:19.099Z,98
2022-08-11T21:02:00.258Z,98
2022-08-11T21:07:35.211Z,98
2022-08-11T21:13:25.083Z,98
2022-08-11T21:18:45.286Z,98
2022-08-11T21:24:20.205Z,98
2022-08-11T21:29:55.237Z,98
2022-08-11T21:35:30.319Z,98
2022-08-11T21:41:14.488Z,98
2022-08-11T21:47:47.411Z,98
2022-08-11T21:53:22.303Z,98
2022-08-11T21:58:57.412Z,98
2022-08-11T22:04:32.319Z,98
2022-08-11T22:10:32.065Z,98
2022-08-11T22:15:42.381Z,98
2022-08-11T22:21:56.535Z,98
2022-08-11T22:26:52.349Z,98
2022-08-11T22:32:27.406Z,98
2022-08-11T22:38:02.456Z,98
2022-08-11T22:43:37.452Z,98
2022-08-11T22:49:12.409Z,98
2022-08-11T22:54:47.949Z,98
2022-08-11T23:00:22.395Z,98
2022-08-11T23:05:57.480Z,98
2022-08-11T23:12:00.231Z,98
2022-08-11T23:18:14.044Z,98
2022-08-11T23:23:49.005Z,98
2022-08-11T23:29:24.082Z,98
2022-08-11T23:47:16.190Z,98
2022-08-11T23:52:52.180Z,98
2022-08-11T23:58:26.734Z,98
